createdAt,value
2023-08-07T00:02:01.187Z,16.04
2023-08-07T00:04:27.957Z,16.03
2023-08-07T00:06:54.705Z,16.08
2023-08-07T00:09:21.422Z,16.08
2023-08-07T00:11:48.159Z,16.06
2023-08-07T00:14:14.944Z,16.04
2023-08-07T00:16:42.566Z,16.04
2023-08-07T00:19:09.384Z,16.04
2023-08-07T00:21:36.894Z,16.03
2023-08-07T00:24:03.823Z,16.03
2023-08-07T00:26:30.768Z,16.04
2023-08-07T00:28:57.521Z,16.03
2023-08-07T00:31:24.318Z,16.03
2023-08-07T00:33:54.944Z,16.02
2023-08-07T00:36:21.637Z,16.01
2023-08-07T00:38:48.327Z,15.99
2023-08-07T00:41:18.302Z,15.97
2023-08-07T00:43:45.088Z,15.95
2023-08-07T00:46:11.844Z,15.94
2023-08-07T00:48:38.668Z,15.94
2023-08-07T00:51:06.105Z,15.95
2023-08-07T00:53:32.901Z,15.93
2023-08-07T00:55:59.740Z,15.93
2023-08-07T00:58:26.772Z,15.93
2023-08-07T01:00:53.590Z,15.93
2023-08-07T01:03:20.439Z,15.90
2023-08-07T01:05:47.238Z,15.93
2023-08-07T01:08:14.274Z,15.93
2023-08-07T01:11:13.242Z,15.87
2023-08-07T01:14:17.329Z,15.84
2023-08-07T01:16:52.022Z,15.87
2023-08-07T01:19:28.060Z,15.84
2023-08-07T01:22:13.350Z,15.81
2023-08-07T01:24:41.522Z,15.88
2023-08-07T01:27:28.857Z,15.81
2023-08-07T01:30:34.098Z,15.83
2023-08-07T01:33:19.475Z,15.86
2023-08-07T01:35:48.761Z,15.83
2023-08-07T01:38:15.867Z,15.82
2023-08-07T01:40:43.144Z,15.84
2023-08-07T01:43:09.830Z,15.87
2023-08-07T01:45:36.779Z,15.81
2023-08-07T01:48:03.902Z,15.80
2023-08-07T01:50:31.071Z,15.77
2023-08-07T01:52:58.917Z,15.75
2023-08-07T01:55:25.635Z,15.78
2023-08-07T01:57:53.139Z,15.76
2023-08-07T02:00:20.612Z,15.76
2023-08-07T02:02:48.149Z,15.80
2023-08-07T02:05:15.737Z,15.74
2023-08-07T02:07:42.814Z,15.74
2023-08-07T02:10:10.083Z,15.73
2023-08-07T02:12:36.951Z,15.74
2023-08-07T02:15:04.088Z,15.72
2023-08-07T02:17:32.066Z,15.73
2023-08-07T02:19:59.184Z,15.73
2023-08-07T02:22:26.052Z,15.72
2023-08-07T02:24:52.773Z,15.72
2023-08-07T02:27:19.502Z,15.70
2023-08-07T02:29:47.621Z,15.69
2023-08-07T02:32:14.392Z,15.71
2023-08-07T02:34:41.225Z,15.69
2023-08-07T02:37:07.988Z,15.64
2023-08-07T02:39:34.803Z,15.64
2023-08-07T02:42:01.693Z,15.65
2023-08-07T02:44:28.484Z,15.62
2023-08-07T02:46:55.438Z,15.65
2023-08-07T02:49:22.796Z,15.63
2023-08-07T02:51:49.582Z,15.59
2023-08-07T02:54:16.315Z,15.62
2023-08-07T02:56:43.161Z,15.58
2023-08-07T02:59:10.027Z,15.59
2023-08-07T03:01:36.739Z,15.57
2023-08-07T03:04:03.668Z,15.57
2023-08-07T03:06:30.431Z,15.58
2023-08-07T03:08:57.174Z,15.58
2023-08-07T03:11:23.901Z,15.57
2023-08-07T03:13:50.642Z,15.54
2023-08-07T03:16:17.542Z,15.53
2023-08-07T03:18:44.471Z,15.53
2023-08-07T03:21:11.209Z,15.54
2023-08-07T03:23:37.971Z,15.54
2023-08-07T03:28:42.133Z,15.51
2023-08-07T03:31:09.395Z,15.50
2023-08-07T03:33:37.554Z,15.50
2023-08-07T03:36:05.110Z,15.46
2023-08-07T03:38:33.080Z,15.47
2023-08-07T03:41:00.391Z,15.47
2023-08-07T03:43:28.543Z,15.48
2023-08-07T03:46:02.137Z,15.47
2023-08-07T03:48:30.971Z,15.46
2023-08-07T03:51:11.837Z,15.39
2023-08-07T03:53:45.093Z,15.44
2023-08-07T03:56:11.831Z,15.44
2023-08-07T03:58:38.684Z,15.43
2023-08-07T04:01:06.506Z,15.44
2023-08-07T04:03:33.455Z,15.44
2023-08-07T04:06:02.847Z,15.46
2023-08-07T04:08:29.636Z,15.44
2023-08-07T04:11:04.070Z,15.37
2023-08-07T04:13:32.128Z,15.39
2023-08-07T04:15:59.551Z,15.36
2023-08-07T04:18:26.758Z,15.37
2023-08-07T04:20:57.106Z,15.33
2023-08-07T04:23:24.348Z,15.36
2023-08-07T04:25:52.976Z,15.33
2023-08-07T04:28:19.928Z,15.33
2023-08-07T04:30:51.046Z,15.33
2023-08-07T04:33:17.861Z,15.32
2023-08-07T04:35:44.673Z,15.32
2023-08-07T04:38:11.468Z,15.30
2023-08-07T04:40:38.945Z,15.28
2023-08-07T04:43:05.659Z,15.32
2023-08-07T04:45:32.323Z,15.30
2023-08-07T04:47:59.203Z,15.29
2023-08-07T04:50:25.902Z,15.30
2023-08-07T04:52:52.618Z,15.28
2023-08-07T04:55:19.384Z,15.25
2023-08-07T04:57:47.557Z,15.27
2023-08-07T05:00:14.753Z,15.22
2023-08-07T05:02:41.682Z,15.21
2023-08-07T05:05:10.143Z,15.21
2023-08-07T05:07:36.918Z,15.24
2023-08-07T05:10:03.881Z,15.22
2023-08-07T05:12:30.664Z,15.22
2023-08-07T05:14:57.415Z,15.25
2023-08-07T05:17:24.240Z,15.22
2023-08-07T05:19:50.994Z,15.19
2023-08-07T05:22:17.755Z,15.20
2023-08-07T05:24:45.948Z,15.18
2023-08-07T05:27:12.808Z,15.19
2023-08-07T05:29:44.999Z,15.21
2023-08-07T05:32:16.028Z,15.16
2023-08-07T05:34:42.925Z,15.18
2023-08-07T05:37:09.705Z,15.18
2023-08-07T05:39:36.941Z,15.19
2023-08-07T05:42:04.091Z,15.19
2023-08-07T05:44:31.043Z,15.17
2023-08-07T05:46:57.880Z,15.20
2023-08-07T05:49:26.232Z,15.20
2023-08-07T05:51:54.401Z,15.23
2023-08-07T05:54:21.699Z,15.23
2023-08-07T05:56:48.634Z,15.24
2023-08-07T05:59:16.293Z,15.23
2023-08-07T06:01:43.109Z,15.24
2023-08-07T06:04:10.222Z,15.22
2023-08-07T06:06:37.349Z,15.24
2023-08-07T06:09:04.992Z,15.22
2023-08-07T06:11:32.130Z,15.25
2023-08-07T06:13:59.069Z,15.28
2023-08-07T06:16:25.956Z,15.27
2023-08-07T06:18:53.152Z,15.32
2023-08-07T06:21:21.061Z,15.32
2023-08-07T06:23:48.040Z,15.31
2023-08-07T06:26:14.799Z,15.32
2023-08-07T06:28:42.751Z,15.33
2023-08-07T06:31:10.742Z,15.32
2023-08-07T06:33:38.118Z,15.35
2023-08-07T06:36:05.260Z,15.36
2023-08-07T06:38:32.287Z,15.35
2023-08-07T06:40:59.209Z,15.35
2023-08-07T06:43:26.232Z,15.37
2023-08-07T06:45:54.436Z,15.38
2023-08-07T06:48:21.221Z,15.41
2023-08-07T06:50:48.869Z,15.43
2023-08-07T06:53:15.728Z,15.46
2023-08-07T06:55:42.915Z,15.45
2023-08-07T06:58:10.043Z,15.48
2023-08-07T07:00:37.491Z,15.44
2023-08-07T07:03:05.012Z,15.45
2023-08-07T07:05:31.960Z,15.44
2023-08-07T07:07:59.033Z,15.44
2023-08-07T07:10:25.889Z,15.43
2023-08-07T07:12:53.344Z,15.43
2023-08-07T07:15:20.130Z,15.43
2023-08-07T07:17:46.959Z,15.41
2023-08-07T07:20:13.924Z,15.40
2023-08-07T07:22:40.715Z,15.41
2023-08-07T07:25:08.053Z,15.43
2023-08-07T07:27:34.886Z,15.44
2023-08-07T07:30:01.758Z,15.45
2023-08-07T07:32:30.746Z,15.48
2023-08-07T07:34:57.652Z,15.50
2023-08-07T07:37:24.438Z,15.52
2023-08-07T07:39:51.152Z,15.54
2023-08-07T07:42:17.984Z,15.56
2023-08-07T07:44:44.685Z,15.62
2023-08-07T07:47:14.053Z,15.67
2023-08-07T07:49:48.824Z,15.73
2023-08-07T07:52:15.840Z,15.74
2023-08-07T07:54:43.011Z,15.76
2023-08-07T07:57:09.747Z,15.76
2023-08-07T07:59:36.570Z,15.80
2023-08-07T08:02:03.433Z,15.84
2023-08-07T08:04:30.547Z,15.89
2023-08-07T08:06:57.461Z,15.91
2023-08-07T08:09:24.281Z,15.91
2023-08-07T08:11:51.110Z,15.88
2023-08-07T08:14:17.894Z,15.85
2023-08-07T08:16:44.588Z,15.82
2023-08-07T08:19:11.428Z,15.81
2023-08-07T08:21:38.232Z,15.84
2023-08-07T08:24:05.536Z,15.88
2023-08-07T08:26:32.471Z,15.87
2023-08-07T08:28:59.203Z,15.86
2023-08-07T08:31:26.331Z,15.81
2023-08-07T08:33:53.104Z,15.83
2023-08-07T08:36:19.963Z,15.87
2023-08-07T08:38:49.131Z,15.83
2023-08-07T08:41:16.372Z,15.83
2023-08-07T08:43:44.230Z,15.84
2023-08-07T08:46:13.024Z,15.84
2023-08-07T08:48:40.297Z,15.82
2023-08-07T08:51:07.455Z,15.82
2023-08-07T08:53:34.841Z,15.84
2023-08-07T08:56:02.995Z,15.82
2023-08-07T08:58:29.976Z,15.83
2023-08-07T09:00:56.913Z,15.89
2023-08-07T09:03:25.013Z,15.94
2023-08-07T09:05:54.624Z,15.93
2023-08-07T09:08:22.893Z,15.95
2023-08-07T09:10:49.937Z,15.97
2023-08-07T09:13:19.360Z,16.01
2023-08-07T09:15:51.521Z,16.05
2023-08-07T09:18:20.233Z,16.05
2023-08-07T09:20:47.086Z,16.03
2023-08-07T09:23:14.089Z,16.05
2023-08-07T09:25:40.848Z,16.06
2023-08-07T09:28:07.847Z,16.07
2023-08-07T09:30:36.991Z,16.08
2023-08-07T09:33:04.189Z,16.15
2023-08-07T09:35:34.861Z,16.20
2023-08-07T09:38:02.563Z,16.21
2023-08-07T09:40:30.585Z,16.26
2023-08-07T09:42:57.449Z,16.25
2023-08-07T09:45:25.663Z,16.27
2023-08-07T09:48:01.472Z,16.29
2023-08-07T09:50:29.128Z,16.33
2023-08-07T09:52:56.857Z,16.38
2023-08-07T09:55:23.850Z,16.40
2023-08-07T09:57:51.254Z,16.38
2023-08-07T10:00:21.215Z,16.38
2023-08-07T10:02:49.698Z,16.41
2023-08-07T10:05:17.744Z,16.42
2023-08-07T10:07:44.667Z,16.45
2023-08-07T10:10:11.728Z,16.53
2023-08-07T10:12:39.645Z,16.59
2023-08-07T10:15:07.508Z,16.60
2023-08-07T10:17:34.915Z,16.57
2023-08-07T10:20:01.962Z,16.60
2023-08-07T10:22:32.276Z,16.53
2023-08-07T10:25:02.583Z,16.56
2023-08-07T10:27:32.030Z,16.60
2023-08-07T10:30:00.257Z,16.65
2023-08-07T10:32:29.036Z,16.70
2023-08-07T10:34:56.899Z,16.69
2023-08-07T10:37:43.557Z,16.60
2023-08-07T10:40:12.179Z,16.61
2023-08-07T10:43:18.222Z,16.48
2023-08-07T10:45:45.061Z,16.54
2023-08-07T10:48:13.334Z,16.58
2023-08-07T10:51:00.931Z,16.58
2023-08-07T10:53:37.947Z,16.67
2023-08-07T10:56:05.936Z,16.62
2023-08-07T10:58:37.077Z,16.67
2023-08-07T11:01:40.677Z,16.64
2023-08-07T11:04:11.134Z,16.57
2023-08-07T11:06:38.801Z,16.71
2023-08-07T11:09:07.315Z,16.74
2023-08-07T11:11:42.378Z,16.68
2023-08-07T11:14:13.997Z,16.66
2023-08-07T11:16:41.202Z,16.60
2023-08-07T11:19:09.380Z,16.61
2023-08-07T11:21:36.981Z,16.59
2023-08-07T11:24:04.161Z,16.55
2023-08-07T11:26:31.124Z,16.59
2023-08-07T11:28:58.435Z,16.57
2023-08-07T11:31:26.471Z,16.59
2023-08-07T11:33:54.145Z,16.55
2023-08-07T11:36:20.980Z,16.54
2023-08-07T11:38:48.085Z,16.52
2023-08-07T11:41:18.094Z,16.48
2023-08-07T11:43:45.323Z,16.45
2023-08-07T11:46:13.703Z,16.41
2023-08-07T11:48:42.012Z,16.39
2023-08-07T11:51:09.321Z,16.37
2023-08-07T11:53:37.856Z,16.36
2023-08-07T11:56:15.191Z,16.35
2023-08-07T11:58:43.973Z,16.35
2023-08-07T12:01:15.465Z,16.35
2023-08-07T12:04:08.305Z,16.29
2023-08-07T12:06:36.531Z,16.33
2023-08-07T12:09:03.859Z,16.33
2023-08-07T12:11:31.064Z,16.32
2023-08-07T12:14:00.933Z,16.33
2023-08-07T12:16:27.926Z,16.36
2023-08-07T12:18:54.737Z,16.41
2023-08-07T12:21:26.655Z,16.47
2023-08-07T12:23:56.646Z,16.50
2023-08-07T12:26:23.679Z,16.55
2023-08-07T12:28:50.999Z,16.60
2023-08-07T12:31:18.728Z,16.61
2023-08-07T12:33:45.736Z,16.65
2023-08-07T12:38:44.255Z,16.69
2023-08-07T12:41:44.747Z,16.73
2023-08-07T12:43:57.786Z,16.81
2023-08-07T12:48:54.216Z,16.86
2023-08-07T12:51:20.908Z,16.85
2023-08-07T12:53:48.512Z,16.87
2023-08-07T12:56:15.417Z,16.83
2023-08-07T12:58:42.794Z,16.84
2023-08-07T13:01:10.931Z,16.86
2023-08-07T13:03:37.737Z,16.86
2023-08-07T13:06:07.576Z,16.87
2023-08-07T13:08:35.861Z,16.84
2023-08-07T13:11:03.017Z,16.89
2023-08-07T13:13:29.720Z,16.90
2023-08-07T13:15:56.507Z,16.93
2023-08-07T13:18:23.522Z,16.98
2023-08-07T13:20:50.225Z,17.00
2023-08-07T13:23:16.985Z,16.97
2023-08-07T13:25:43.790Z,16.97
2023-08-07T13:28:10.623Z,16.95
2023-08-07T13:30:37.885Z,16.99
2023-08-07T13:33:05.212Z,17.01
2023-08-07T13:35:33.771Z,17.04
2023-08-07T13:38:00.876Z,17.03
2023-08-07T13:40:27.597Z,17.01
2023-08-07T13:42:54.460Z,16.98
2023-08-07T13:45:21.663Z,16.98
2023-08-07T13:47:48.626Z,16.99
2023-08-07T13:50:16.032Z,17.00
2023-08-07T13:52:42.742Z,17.03
2023-08-07T13:55:10.448Z,17.04
2023-08-07T13:57:37.692Z,17.05
2023-08-07T14:00:05.290Z,17.06
2023-08-07T14:02:34.323Z,17.06
2023-08-07T14:05:01.090Z,17.11
2023-08-07T14:07:27.858Z,17.14
2023-08-07T14:09:54.670Z,17.20
2023-08-07T14:12:21.683Z,17.22
2023-08-07T14:14:48.566Z,17.22
2023-08-07T14:17:15.450Z,17.22
2023-08-07T14:19:42.323Z,17.22
2023-08-07T14:22:09.304Z,17.26
2023-08-07T14:24:36.128Z,17.30
2023-08-07T14:27:03.123Z,17.35
2023-08-07T14:29:29.924Z,17.39
2023-08-07T14:31:56.876Z,17.42
2023-08-07T14:34:23.734Z,17.44
2023-08-07T14:36:50.601Z,17.44
2023-08-07T14:39:17.603Z,17.48
2023-08-07T14:41:44.419Z,17.48
2023-08-07T14:44:11.140Z,17.51
2023-08-07T14:46:39.440Z,17.52
2023-08-07T14:49:06.277Z,17.57
2023-08-07T14:51:33.009Z,17.61
2023-08-07T14:53:59.953Z,17.67
2023-08-07T14:56:26.908Z,17.69
2023-08-07T14:58:53.723Z,17.72
2023-08-07T15:01:20.516Z,17.67
2023-08-07T15:03:47.362Z,17.67
2023-08-07T15:06:14.361Z,17.68
2023-08-07T15:08:41.082Z,17.65
2023-08-07T15:11:07.850Z,17.61
2023-08-07T15:13:34.619Z,17.58
2023-08-07T15:16:01.482Z,17.52
2023-08-07T15:18:28.355Z,17.52
2023-08-07T15:20:55.207Z,17.54
2023-08-07T15:23:22.054Z,17.57
2023-08-07T15:25:49.394Z,17.59
2023-08-07T15:28:16.325Z,17.61
2023-08-07T15:30:49.390Z,17.57
2023-08-07T15:33:17.618Z,17.57
2023-08-07T15:35:44.770Z,17.57
2023-08-07T15:38:11.629Z,17.58
2023-08-07T15:40:40.019Z,17.61
2023-08-07T15:43:08.120Z,17.60
2023-08-07T15:45:34.910Z,17.55
2023-08-07T15:48:01.717Z,17.54
2023-08-07T15:50:28.540Z,17.52
2023-08-07T15:52:55.438Z,17.50
2023-08-07T15:55:22.188Z,17.48
2023-08-07T15:57:48.902Z,17.48
2023-08-07T16:00:16.082Z,17.47
2023-08-07T16:02:42.912Z,17.44
2023-08-07T16:05:09.678Z,17.40
2023-08-07T16:07:36.610Z,17.36
2023-08-07T16:10:03.902Z,17.33
2023-08-07T16:12:30.649Z,17.33
2023-08-07T16:15:00.006Z,17.29
2023-08-07T16:17:27.252Z,17.26
2023-08-07T16:19:54.063Z,17.24
2023-08-07T16:22:20.875Z,17.20
2023-08-07T16:24:48.666Z,17.17
2023-08-07T16:27:15.528Z,17.12
2023-08-07T16:29:42.306Z,17.10
2023-08-07T16:32:10.047Z,17.13
2023-08-07T16:34:36.955Z,17.16
2023-08-07T16:37:03.982Z,17.17
2023-08-07T16:39:30.718Z,17.16
2023-08-07T16:41:57.548Z,17.16
2023-08-07T16:44:24.334Z,17.16
2023-08-07T16:46:51.041Z,17.16
2023-08-07T16:49:18.203Z,17.12
2023-08-07T16:51:45.913Z,17.12
2023-08-07T16:54:13.408Z,17.11
2023-08-07T16:56:40.396Z,17.12
2023-08-07T16:59:07.510Z,17.09
2023-08-07T17:01:34.314Z,17.08
2023-08-07T17:04:01.156Z,17.11
2023-08-07T17:06:28.026Z,17.12
2023-08-07T17:08:54.830Z,17.14
2023-08-07T17:11:21.929Z,17.16
2023-08-07T17:13:49.026Z,17.19
2023-08-07T17:16:16.049Z,17.17
2023-08-07T17:18:43.056Z,17.16
2023-08-07T17:21:11.007Z,17.16
2023-08-07T17:23:37.916Z,17.16
2023-08-07T17:26:04.769Z,17.14
2023-08-07T17:28:31.525Z,17.15
2023-08-07T17:30:58.557Z,17.13
2023-08-07T17:33:25.371Z,17.12
2023-08-07T17:35:52.105Z,17.09
2023-08-07T17:38:20.060Z,17.07
2023-08-07T17:40:50.352Z,17.06
2023-08-07T17:43:17.103Z,17.06
2023-08-07T17:45:43.884Z,17.03
2023-08-07T17:48:10.830Z,17.00
2023-08-07T17:50:38.355Z,16.99
2023-08-07T17:53:05.578Z,16.99
2023-08-07T17:55:32.489Z,16.98
2023-08-07T17:57:59.373Z,16.97
2023-08-07T18:00:26.177Z,16.98
2023-08-07T18:02:54.792Z,17.00
2023-08-07T18:05:22.581Z,17.01
2023-08-07T18:07:49.382Z,17.01
2023-08-07T18:10:16.293Z,17.01
2023-08-07T18:12:43.332Z,17.00
2023-08-07T18:15:10.157Z,16.98
2023-08-07T18:17:36.961Z,16.97
2023-08-07T18:20:07.351Z,16.94
2023-08-07T18:22:34.698Z,16.89
2023-08-07T18:25:01.700Z,16.88
2023-08-07T18:27:28.687Z,16.89
2023-08-07T18:29:55.611Z,16.86
2023-08-07T18:32:22.409Z,16.84
2023-08-07T18:34:49.231Z,16.80
2023-08-07T18:37:16.415Z,16.76
2023-08-07T18:39:43.223Z,16.70
2023-08-07T18:42:10.157Z,16.69
2023-08-07T18:44:36.929Z,16.67
2023-08-07T18:47:03.753Z,16.64
2023-08-07T18:49:30.682Z,16.62
2023-08-07T18:51:57.484Z,16.61
2023-08-07T18:54:25.464Z,16.60
2023-08-07T18:56:53.860Z,16.60
2023-08-07T18:59:21.054Z,16.59
2023-08-07T19:01:48.085Z,16.59
2023-08-07T19:04:15.033Z,16.58
2023-08-07T19:06:43.634Z,16.56
2023-08-07T19:09:10.909Z,16.53
2023-08-07T19:11:37.822Z,16.53
2023-08-07T19:14:05.221Z,16.53
2023-08-07T19:16:32.417Z,16.54
2023-08-07T19:18:59.155Z,16.52
2023-08-07T19:21:26.560Z,16.53
2023-08-07T19:23:53.398Z,16.52
2023-08-07T19:26:20.317Z,16.51
2023-08-07T19:28:47.200Z,16.48
2023-08-07T19:31:14.172Z,16.48
2023-08-07T19:33:41.924Z,16.46
2023-08-07T19:36:08.703Z,16.45
2023-08-07T19:38:35.558Z,16.42
2023-08-07T19:41:02.340Z,16.41
2023-08-07T19:43:29.657Z,16.40
2023-08-07T19:45:57.746Z,16.39
2023-08-07T19:48:24.779Z,16.38
2023-08-07T19:50:57.486Z,16.35
2023-08-07T19:53:24.238Z,16.37
2023-08-07T19:55:51.080Z,16.39
2023-08-07T19:58:20.481Z,16.41
2023-08-07T20:00:47.324Z,16.39
2023-08-07T20:03:14.910Z,16.40
2023-08-07T20:05:41.953Z,16.39
2023-08-07T20:08:09.683Z,16.39
2023-08-07T20:10:36.561Z,16.36
2023-08-07T20:13:03.586Z,16.34
2023-08-07T20:15:30.525Z,16.34
2023-08-07T20:17:57.388Z,16.32
2023-08-07T20:20:24.213Z,16.33
2023-08-07T20:22:51.023Z,16.30
2023-08-07T20:25:17.777Z,16.30
2023-08-07T20:27:44.600Z,16.30
2023-08-07T20:30:11.449Z,16.29
2023-08-07T20:32:38.645Z,16.30
2023-08-07T20:35:05.765Z,16.31
2023-08-07T20:37:32.572Z,16.30
2023-08-07T20:39:59.503Z,16.28
2023-08-07T20:42:26.416Z,16.28
2023-08-07T20:44:53.254Z,16.28
2023-08-07T20:47:20.093Z,16.26
2023-08-07T20:49:46.947Z,16.25
2023-08-07T20:52:13.860Z,16.24
2023-08-07T20:54:40.552Z,16.23
2023-08-07T20:57:07.475Z,16.20
2023-08-07T20:59:34.241Z,16.19
2023-08-07T21:02:01.586Z,16.18
2023-08-07T21:04:28.679Z,16.17
2023-08-07T21:06:55.540Z,16.16
2023-08-07T21:09:22.290Z,16.15
2023-08-07T21:11:49.102Z,16.14
2023-08-07T21:14:15.811Z,16.14
2023-08-07T21:16:45.507Z,16.14
2023-08-07T21:19:12.718Z,16.13
2023-08-07T21:21:39.741Z,16.11
2023-08-07T21:24:09.947Z,16.12
2023-08-07T21:26:36.769Z,16.11
2023-08-07T21:29:03.780Z,16.12
2023-08-07T21:31:31.139Z,16.10
2023-08-07T21:33:58.754Z,16.10
2023-08-07T21:36:25.765Z,16.11
2023-08-07T21:38:53.880Z,16.10
2023-08-07T21:41:20.640Z,16.08
2023-08-07T21:43:47.389Z,16.08
2023-08-07T21:46:14.206Z,16.05
2023-08-07T21:48:41.063Z,16.04
2023-08-07T21:51:07.823Z,16.04
2023-08-07T21:53:34.542Z,16.03
2023-08-07T21:56:01.298Z,16.02
2023-08-07T21:58:28.025Z,16.03
2023-08-07T22:00:54.782Z,16.01
2023-08-07T22:03:21.594Z,16.00
2023-08-07T22:05:48.447Z,15.99
2023-08-07T22:08:15.208Z,15.98
2023-08-07T22:10:41.879Z,15.99
2023-08-07T22:13:08.689Z,15.99
2023-08-07T22:15:35.424Z,16.01
2023-08-07T22:18:02.229Z,16.00
2023-08-07T22:20:28.991Z,16.02
2023-08-07T22:22:55.811Z,16.00
2023-08-07T22:25:22.548Z,16.01
2023-08-07T22:27:49.401Z,16.02
2023-08-07T22:30:16.827Z,16.01
2023-08-07T22:32:44.637Z,16.01
2023-08-07T22:35:11.467Z,16.00
2023-08-07T22:37:38.424Z,15.99
2023-08-07T22:40:05.788Z,15.99
2023-08-07T22:42:32.526Z,15.97
2023-08-07T22:44:59.484Z,15.97
2023-08-07T22:47:26.250Z,15.95
2023-08-07T22:49:53.035Z,15.96
2023-08-07T22:52:19.998Z,15.95
2023-08-07T22:54:46.739Z,15.93
2023-08-07T22:57:13.507Z,15.91
2023-08-07T22:59:40.359Z,15.91
2023-08-07T23:02:07.596Z,15.89
2023-08-07T23:04:34.348Z,15.92
2023-08-07T23:07:02.043Z,15.90
2023-08-07T23:09:28.784Z,15.89
2023-08-07T23:11:55.911Z,15.87
2023-08-07T23:14:22.819Z,15.88
2023-08-07T23:16:49.603Z,15.86
2023-08-07T23:19:16.348Z,15.85
2023-08-07T23:21:43.083Z,15.83
2023-08-07T23:24:09.816Z,15.84
2023-08-07T23:26:36.702Z,15.82
2023-08-07T23:29:03.532Z,15.84
2023-08-07T23:31:30.313Z,15.82
2023-08-07T23:33:57.086Z,15.81
2023-08-07T23:36:23.828Z,15.80
2023-08-07T23:38:51.283Z,15.80
2023-08-07T23:41:18.137Z,15.79
2023-08-07T23:43:45.029Z,15.77
2023-08-07T23:46:11.769Z,15.80
2023-08-07T23:48:39.925Z,15.79
2023-08-07T23:51:06.675Z,15.80
2023-08-07T23:53:33.465Z,15.79
2023-08-07T23:56:00.198Z,15.81
2023-08-07T23:58:26.909Z,15.80
